createdAt,value
2022-10-05T00:00:08.649Z,43.60
2022-10-05T00:02:37.441Z,43.38
2022-10-05T00:05:05.223Z,43.04
2022-10-05T00:07:32.984Z,43.19
2022-10-05T00:10:00.943Z,43.21
2022-10-05T00:12:29.835Z,43.11
2022-10-05T00:14:57.880Z,43.33
2022-10-05T00:17:25.759Z,43.36
2022-10-05T00:19:54.041Z,43.20
2022-10-05T00:22:21.868Z,43.57
2022-10-05T00:24:49.692Z,43.64
2022-10-05T00:27:17.668Z,43.04
2022-10-05T00:29:45.545Z,43.16
2022-10-05T00:32:13.464Z,43.17
2022-10-05T00:34:41.257Z,43.15
2022-10-05T00:37:09.304Z,43.57
2022-10-05T00:39:37.097Z,43.36
2022-10-05T00:42:05.003Z,43.53
2022-10-05T00:47:42.462Z,43.29
2022-10-05T00:50:10.284Z,43.23
2022-10-05T00:52:38.037Z,43.59
2022-10-05T00:55:05.765Z,43.37
2022-10-05T00:57:33.929Z,43.43
2022-10-05T01:00:01.640Z,43.30
2022-10-05T01:02:33.021Z,43.24
2022-10-05T01:05:03.624Z,43.64
2022-10-05T01:07:31.337Z,43.23
2022-10-05T01:09:59.133Z,43.21
2022-10-05T01:12:27.385Z,43.36
2022-10-05T01:14:55.565Z,43.24
2022-10-05T01:17:23.688Z,43.30
2022-10-05T01:19:51.533Z,43.66
2022-10-05T01:22:19.639Z,43.53
2022-10-05T01:24:47.471Z,43.23
2022-10-05T01:27:15.503Z,43.12
2022-10-05T01:29:43.819Z,43.10
2022-10-05T01:32:12.149Z,43.48
2022-10-05T01:34:40.901Z,43.19
2022-10-05T01:37:09.123Z,43.19
2022-10-05T01:39:37.195Z,43.23
2022-10-05T01:42:05.140Z,43.30
2022-10-05T01:44:33.432Z,43.54
2022-10-05T01:47:03.343Z,43.50
2022-10-05T01:49:31.431Z,43.46
2022-10-05T01:51:59.335Z,43.43
2022-10-05T01:54:27.568Z,43.17
2022-10-05T01:56:55.441Z,43.05
2022-10-05T01:59:23.917Z,43.14
2022-10-05T02:01:52.008Z,43.10
2022-10-05T02:04:42.661Z,43.17
2022-10-05T02:07:08.141Z,43.31
2022-10-05T02:09:36.385Z,43.13
2022-10-05T02:12:04.860Z,43.17
2022-10-05T02:14:32.896Z,43.40
2022-10-05T02:17:01.177Z,43.58
2022-10-05T02:19:28.989Z,43.20
2022-10-05T02:21:56.988Z,43.22
2022-10-05T02:24:24.914Z,43.25
2022-10-05T02:26:52.845Z,43.18
2022-10-05T02:29:20.700Z,43.23
2022-10-05T02:31:48.692Z,43.39
2022-10-05T02:34:17.048Z,43.50
2022-10-05T02:36:45.121Z,43.37
2022-10-05T02:39:13.265Z,43.55
2022-10-05T02:41:41.272Z,43.33
2022-10-05T02:44:09.301Z,43.57
2022-10-05T02:46:38.114Z,43.21
2022-10-05T02:49:06.009Z,43.23
2022-10-05T02:51:33.814Z,43.36
2022-10-05T02:54:01.590Z,43.02
2022-10-05T02:56:29.376Z,43.12
2022-10-05T02:58:57.395Z,43.43
2022-10-05T03:01:25.492Z,43.14
2022-10-05T03:03:53.501Z,43.32
2022-10-05T03:06:21.348Z,43.04
2022-10-05T03:08:49.523Z,43.35
2022-10-05T03:11:17.495Z,43.06
2022-10-05T03:13:45.439Z,43.09
2022-10-05T03:16:13.568Z,43.12
2022-10-05T03:18:41.942Z,43.00
2022-10-05T03:21:09.799Z,43.25
2022-10-05T03:23:37.644Z,43.54
2022-10-05T03:26:06.229Z,43.02
2022-10-05T03:28:34.402Z,42.92
2022-10-05T03:31:02.419Z,42.74
2022-10-05T03:33:30.327Z,43.15
2022-10-05T03:35:58.195Z,43.44
2022-10-05T03:38:26.049Z,43.23
2022-10-05T03:40:54.153Z,43.54
2022-10-05T03:43:22.022Z,43.28
2022-10-05T03:45:49.973Z,43.42
2022-10-05T03:48:17.808Z,43.29
2022-10-05T03:50:45.978Z,43.43
2022-10-05T03:53:14.213Z,43.40
2022-10-05T03:55:42.569Z,43.17
2022-10-05T03:58:10.471Z,43.60
2022-10-05T04:00:38.261Z,43.22
2022-10-05T04:03:06.121Z,43.48
2022-10-05T04:05:34.001Z,43.10
2022-10-05T04:08:01.899Z,43.64
2022-10-05T04:10:29.650Z,43.25
2022-10-05T04:12:58.014Z,43.25
2022-10-05T04:15:25.776Z,43.44
2022-10-05T04:17:53.560Z,43.57
2022-10-05T04:20:21.362Z,43.45
2022-10-05T04:22:49.178Z,43.76
2022-10-05T04:25:16.975Z,43.56
2022-10-05T04:27:44.764Z,43.39
2022-10-05T04:30:12.890Z,43.61
2022-10-05T04:32:40.710Z,43.84
2022-10-05T04:35:08.796Z,43.49
2022-10-05T04:37:36.649Z,43.77
2022-10-05T04:40:05.023Z,43.47
2022-10-05T04:42:32.794Z,43.46
2022-10-05T04:45:00.656Z,43.61
2022-10-05T04:47:28.470Z,43.57
2022-10-05T04:49:56.339Z,43.81
2022-10-05T04:52:24.274Z,43.76
2022-10-05T04:54:52.084Z,43.75
2022-10-05T04:57:19.995Z,43.73
2022-10-05T04:59:48.179Z,43.91
2022-10-05T05:02:16.750Z,43.61
2022-10-05T05:04:48.229Z,43.57
2022-10-05T05:07:18.706Z,44.02
2022-10-05T05:09:46.556Z,44.05
2022-10-05T05:12:14.384Z,44.21
2022-10-05T05:14:42.262Z,44.22
2022-10-05T05:17:13.174Z,44.08
2022-10-05T05:19:41.235Z,44.13
2022-10-05T05:22:09.605Z,43.77
2022-10-05T05:24:37.616Z,43.72
2022-10-05T05:27:05.438Z,44.05
2022-10-05T05:29:33.247Z,44.14
2022-10-05T05:32:01.046Z,43.69
2022-10-05T05:34:28.992Z,44.11
2022-10-05T05:36:56.861Z,43.71
2022-10-05T05:39:25.154Z,43.86
2022-10-05T05:41:52.988Z,43.86
2022-10-05T05:44:20.785Z,43.99
2022-10-05T05:47:05.100Z,43.95
2022-10-05T05:49:33.347Z,43.91
2022-10-05T05:52:01.270Z,43.66
2022-10-05T05:54:29.076Z,44.01
2022-10-05T05:56:56.872Z,43.80
2022-10-05T05:59:27.897Z,43.69
2022-10-05T06:01:55.760Z,43.68
2022-10-05T06:04:23.596Z,44.05
2022-10-05T06:06:51.826Z,44.06
2022-10-05T06:09:19.685Z,43.69
2022-10-05T06:11:47.440Z,43.93
2022-10-05T06:14:15.234Z,43.90
2022-10-05T06:16:43.316Z,44.07
2022-10-05T06:19:11.234Z,43.53
2022-10-05T06:21:39.055Z,43.76
2022-10-05T06:24:06.865Z,44.12
2022-10-05T06:26:34.928Z,43.77
2022-10-05T06:29:02.868Z,43.83
2022-10-05T06:31:30.895Z,44.12
2022-10-05T06:33:58.840Z,43.96
2022-10-05T06:36:27.237Z,43.89
2022-10-05T06:38:55.135Z,43.87
2022-10-05T06:41:23.358Z,43.73
2022-10-05T06:43:51.254Z,43.48
2022-10-05T06:46:19.126Z,43.57
2022-10-05T06:48:47.073Z,43.91
2022-10-05T06:51:14.881Z,43.48
2022-10-05T06:53:42.772Z,43.85
2022-10-05T06:56:10.665Z,43.91
2022-10-05T06:58:39.024Z,43.78
2022-10-05T07:01:06.875Z,43.81
2022-10-05T07:03:34.824Z,43.50
2022-10-05T07:06:02.720Z,43.70
2022-10-05T07:08:30.648Z,44.02
2022-10-05T07:10:58.501Z,43.41
2022-10-05T07:13:26.391Z,43.64
2022-10-05T07:24:58.692Z,43.77
2022-10-05T07:27:26.503Z,43.97
2022-10-05T07:29:54.296Z,43.46
2022-10-05T07:32:22.304Z,43.42
2022-10-05T07:34:49.997Z,43.69
2022-10-05T07:37:35.056Z,43.61
2022-10-05T07:40:02.882Z,43.66
2022-10-05T07:42:30.645Z,43.77
2022-10-05T07:44:58.384Z,43.28
2022-10-05T07:47:26.205Z,43.81
2022-10-05T07:49:53.949Z,43.73
2022-10-05T07:52:22.113Z,43.63
2022-10-05T07:54:49.870Z,43.39
2022-10-05T07:57:18.187Z,43.36
2022-10-05T07:59:45.929Z,43.74
2022-10-05T08:02:13.834Z,43.40
2022-10-05T08:04:42.052Z,43.40
2022-10-05T08:07:09.901Z,43.78
2022-10-05T08:09:43.295Z,43.83
2022-10-05T08:12:11.535Z,43.78
2022-10-05T08:14:39.758Z,43.46
2022-10-05T08:17:07.986Z,43.49
2022-10-05T08:19:35.744Z,43.56
2022-10-05T08:22:03.468Z,43.54
2022-10-05T08:24:31.235Z,43.45
2022-10-05T08:27:01.254Z,43.84
2022-10-05T08:29:29.849Z,43.59
2022-10-05T08:31:57.582Z,44.18
2022-10-05T08:34:25.360Z,43.56
2022-10-05T08:36:54.084Z,43.84
2022-10-05T08:39:22.048Z,43.88
2022-10-05T08:41:50.049Z,43.78
2022-10-05T08:44:17.940Z,43.44
2022-10-05T08:46:45.746Z,43.49
2022-10-05T08:49:13.547Z,43.78
2022-10-05T08:54:32.907Z,43.45
2022-10-05T08:57:00.684Z,43.82
2022-10-05T08:59:29.599Z,43.33
2022-10-05T09:01:57.486Z,43.33
2022-10-05T09:04:25.223Z,43.69
2022-10-05T09:06:53.033Z,43.41
2022-10-05T09:09:20.820Z,43.68
2022-10-05T09:11:48.874Z,43.37
2022-10-05T09:14:17.271Z,43.36
2022-10-05T09:16:45.042Z,43.66
2022-10-05T09:19:12.893Z,43.58
2022-10-05T09:21:41.468Z,43.63
2022-10-05T09:24:09.239Z,43.68
2022-10-05T09:26:36.997Z,43.82
2022-10-05T09:29:04.725Z,43.50
2022-10-05T09:31:32.588Z,43.50
2022-10-05T09:34:00.459Z,43.66
2022-10-05T09:36:28.253Z,43.45
2022-10-05T09:38:55.978Z,43.56
2022-10-05T09:41:23.681Z,43.58
2022-10-05T09:43:51.353Z,43.32
2022-10-05T09:46:19.145Z,43.85
2022-10-05T09:48:46.950Z,43.71
2022-10-05T09:51:14.635Z,43.42
2022-10-05T09:53:42.619Z,43.77
2022-10-05T09:56:10.317Z,43.89
2022-10-05T09:58:38.152Z,43.68
2022-10-05T10:01:09.565Z,44.00
2022-10-05T10:03:39.325Z,43.57
2022-10-05T10:06:10.581Z,44.01
2022-10-05T10:08:38.364Z,43.80
2022-10-05T10:11:06.035Z,43.79
2022-10-05T10:13:33.782Z,43.98
2022-10-05T10:16:02.218Z,43.92
2022-10-05T10:18:29.951Z,43.57
2022-10-05T10:20:57.708Z,43.41
2022-10-05T10:23:25.521Z,43.47
2022-10-05T10:25:53.334Z,43.89
2022-10-05T10:28:21.122Z,43.42
2022-10-05T10:30:48.832Z,43.80
2022-10-05T10:33:16.523Z,43.50
2022-10-05T10:35:44.161Z,43.77
2022-10-05T10:38:11.870Z,43.69
2022-10-05T10:40:39.583Z,43.28
2022-10-05T10:43:07.344Z,43.57
2022-10-05T10:45:35.058Z,43.27
2022-10-05T10:48:02.822Z,43.46
2022-10-05T10:50:30.569Z,43.39
2022-10-05T10:52:58.255Z,43.74
2022-10-05T10:55:25.978Z,43.59
2022-10-05T10:57:53.725Z,43.45
2022-10-05T11:00:21.643Z,43.52
2022-10-05T11:02:49.374Z,43.06
2022-10-05T11:05:17.199Z,43.56
2022-10-05T11:07:44.918Z,43.03
2022-10-05T11:10:12.588Z,43.12
2022-10-05T11:12:40.371Z,43.47
2022-10-05T11:15:08.080Z,43.47
2022-10-05T11:17:35.846Z,43.29
2022-10-05T11:20:04.822Z,43.43
2022-10-05T11:22:33.034Z,43.60
2022-10-05T11:25:00.700Z,43.29
2022-10-05T11:27:28.384Z,43.09
2022-10-05T11:29:56.041Z,42.98
2022-10-05T11:32:38.830Z,43.43
2022-10-05T11:35:19.327Z,43.03
2022-10-05T11:38:03.310Z,43.44
2022-10-05T11:40:39.916Z,43.21
2022-10-05T11:43:08.714Z,43.39
2022-10-05T11:45:39.158Z,43.55
2022-10-05T11:48:09.463Z,43.55
2022-10-05T11:50:38.622Z,43.56
2022-10-05T11:53:06.413Z,43.21
2022-10-05T11:55:34.163Z,43.57
2022-10-05T11:58:02.135Z,43.53
2022-10-05T12:00:29.907Z,43.21
2022-10-05T12:02:57.825Z,43.65
2022-10-05T12:05:25.765Z,43.52
2022-10-05T12:07:53.713Z,43.54
2022-10-05T12:10:32.864Z,43.29
2022-10-05T12:13:01.385Z,43.24
2022-10-05T12:15:29.370Z,43.74
2022-10-05T12:17:57.100Z,43.56
2022-10-05T12:20:24.943Z,43.59
2022-10-05T12:23:00.399Z,43.77
2022-10-05T12:25:28.382Z,43.81
2022-10-05T12:27:56.202Z,43.72
2022-10-05T12:30:24.035Z,43.85
2022-10-05T12:32:56.887Z,43.69
2022-10-05T12:35:43.784Z,43.74
2022-10-05T12:38:15.044Z,43.48
2022-10-05T12:40:42.877Z,43.39
2022-10-05T12:43:10.680Z,43.74
2022-10-05T12:45:38.727Z,43.57
2022-10-05T12:48:06.537Z,43.36
2022-10-05T12:50:34.322Z,43.74
2022-10-05T12:53:02.056Z,43.44
2022-10-05T12:55:29.831Z,43.34
2022-10-05T12:57:57.691Z,43.69
2022-10-05T13:00:25.552Z,43.73
2022-10-05T13:02:53.302Z,43.15
2022-10-05T13:05:21.154Z,43.64
2022-10-05T13:07:48.976Z,43.19
2022-10-05T13:10:16.772Z,43.62
2022-10-05T13:12:44.814Z,43.45
2022-10-05T13:15:12.590Z,43.54
2022-10-05T13:17:40.384Z,43.21
2022-10-05T14:56:21.267Z,43.21
2022-10-05T14:58:53.739Z,42.68
2022-10-05T15:01:40.226Z,42.61
2022-10-05T15:04:31.525Z,42.62
2022-10-05T15:07:18.464Z,42.90
2022-10-05T15:10:03.444Z,42.81
2022-10-05T15:21:37.257Z,43.39
2022-10-05T15:24:04.959Z,43.31
2022-10-05T15:26:33.222Z,42.84
2022-10-05T15:29:00.918Z,42.85
2022-10-05T15:34:29.324Z,43.08
2022-10-05T15:36:58.494Z,43.52
2022-10-05T15:39:48.885Z,43.07
2022-10-05T15:42:21.140Z,43.36
2022-10-05T15:44:50.408Z,43.15
2022-10-05T15:50:35.859Z,43.57
2022-10-05T15:53:07.298Z,43.52
2022-10-05T15:55:42.827Z,43.44
2022-10-05T15:58:19.776Z,37.72
2022-10-05T16:03:46.896Z,26.84
2022-10-05T16:06:40.042Z,25.75
2022-10-05T16:09:12.230Z,25.63
2022-10-05T16:11:54.910Z,26.13
2022-10-05T16:23:45.141Z,27.43
2022-10-05T16:38:23.509Z,31.56
2022-10-05T16:49:37.268Z,34.08
2022-10-05T16:52:08.222Z,34.50
2022-10-05T16:54:43.126Z,34.87
2022-10-05T16:57:49.444Z,35.01
2022-10-05T17:00:17.183Z,35.35
2022-10-05T17:02:46.246Z,35.79
2022-10-05T17:05:14.020Z,36.05
2022-10-05T17:07:42.095Z,36.47
2022-10-05T17:10:56.765Z,36.74
2022-10-05T17:32:50.832Z,39.16
2022-10-05T17:39:07.564Z,40.05
2022-10-05T17:42:02.136Z,39.80
2022-10-05T17:57:13.434Z,41.01
2022-10-05T18:03:11.462Z,41.40
2022-10-05T18:06:38.356Z,39.13
2022-10-05T18:12:21.366Z,34.29
2022-10-05T18:14:57.346Z,33.82
2022-10-05T18:17:42.872Z,33.43
2022-10-05T18:20:10.758Z,33.78
2022-10-05T18:22:59.317Z,34.14
2022-10-05T18:25:29.917Z,34.80
2022-10-05T18:28:00.422Z,35.09
2022-10-05T18:30:31.406Z,35.44
2022-10-05T18:33:02.106Z,35.93
2022-10-05T18:36:01.788Z,36.53
2022-10-05T18:38:30.649Z,36.32
2022-10-05T18:41:00.907Z,36.68
2022-10-05T18:43:50.586Z,37.43
2022-10-05T18:46:46.611Z,37.76
2022-10-05T18:49:17.806Z,38.03
2022-10-05T18:51:55.248Z,38.33
2022-10-05T18:54:38.429Z,38.65
2022-10-05T19:13:09.946Z,40.49
2022-10-05T19:15:43.249Z,40.14
2022-10-05T19:21:22.350Z,40.66
2022-10-05T19:23:50.203Z,40.65
2022-10-05T19:26:20.187Z,40.50
2022-10-05T19:28:48.416Z,40.83
2022-10-05T19:31:17.627Z,41.11
2022-10-05T19:33:45.514Z,40.99
2022-10-05T19:36:13.688Z,41.17
2022-10-05T19:38:41.407Z,41.51
2022-10-05T19:41:15.018Z,41.82
2022-10-05T19:43:42.841Z,42.05
2022-10-05T19:46:13.279Z,42.22
2022-10-05T19:48:44.719Z,41.87
2022-10-05T19:51:12.413Z,41.88
2022-10-05T19:53:40.676Z,42.10
2022-10-05T19:56:09.910Z,41.99
2022-10-05T19:58:37.620Z,42.06
2022-10-05T20:01:07.104Z,42.50
2022-10-05T20:03:35.345Z,42.19
2022-10-05T20:06:03.100Z,42.78
2022-10-05T20:08:31.859Z,42.16
2022-10-05T20:10:59.815Z,42.67
2022-10-05T20:13:27.800Z,42.41
2022-10-05T20:16:12.987Z,42.94
2022-10-05T20:18:58.134Z,42.74
2022-10-05T20:21:25.756Z,42.38
2022-10-05T20:23:53.506Z,42.63
2022-10-05T20:26:39.006Z,42.44
2022-10-05T20:29:06.657Z,42.94
2022-10-05T20:31:34.424Z,43.16
2022-10-05T20:34:02.111Z,43.07
2022-10-05T20:36:29.818Z,42.51
2022-10-05T20:39:00.338Z,42.52
2022-10-05T20:41:28.111Z,43.27
2022-10-05T20:43:56.039Z,43.36
2022-10-05T20:46:24.122Z,42.78
2022-10-05T20:48:53.851Z,42.96
2022-10-05T20:51:21.564Z,42.74
2022-10-05T20:53:49.401Z,42.94
2022-10-05T20:56:17.187Z,43.24
2022-10-05T20:58:45.013Z,43.18
2022-10-05T21:01:19.894Z,43.33
2022-10-05T21:03:48.084Z,43.12
2022-10-05T21:06:16.016Z,43.57
2022-10-05T21:08:44.175Z,43.13
2022-10-05T21:11:12.428Z,43.50
2022-10-05T21:13:42.483Z,43.16
2022-10-05T21:16:13.759Z,43.01
2022-10-05T21:18:41.619Z,43.60
2022-10-05T21:21:09.291Z,43.18
2022-10-05T21:23:37.032Z,43.71
2022-10-05T21:26:04.845Z,43.41
2022-10-05T21:28:34.688Z,43.36
2022-10-05T21:31:02.437Z,43.44
2022-10-05T21:33:30.671Z,44.06
2022-10-05T21:35:59.003Z,44.05
2022-10-05T21:38:27.154Z,43.52
2022-10-05T21:40:55.045Z,43.59
2022-10-05T21:43:22.780Z,43.40
2022-10-05T21:45:50.592Z,43.93
2022-10-05T21:48:18.763Z,43.90
2022-10-05T21:50:46.628Z,43.75
2022-10-05T21:53:14.502Z,43.76
2022-10-05T21:55:42.427Z,43.40
2022-10-05T21:58:10.211Z,43.84
2022-10-05T22:00:37.929Z,43.85
2022-10-05T22:03:05.641Z,44.10
2022-10-05T22:05:33.602Z,43.92
2022-10-05T22:08:01.330Z,43.45
2022-10-05T22:10:29.179Z,43.88
2022-10-05T22:12:57.189Z,44.05
2022-10-05T22:15:25.026Z,43.60
2022-10-05T22:17:52.898Z,43.80
2022-10-05T22:20:21.954Z,43.83
2022-10-05T22:22:50.275Z,43.95
2022-10-05T22:25:18.169Z,43.78
2022-10-05T22:27:46.183Z,43.92
2022-10-05T22:30:15.783Z,43.66
2022-10-05T22:32:43.536Z,43.72
2022-10-05T22:35:11.904Z,43.85
2022-10-05T22:37:39.837Z,43.43
2022-10-05T22:40:07.553Z,43.86
2022-10-05T22:42:35.556Z,43.83
2022-10-05T22:45:03.340Z,43.67
2022-10-05T22:47:31.215Z,43.87
2022-10-05T22:49:59.933Z,43.56
2022-10-05T22:52:27.895Z,43.41
2022-10-05T22:54:55.863Z,43.88
2022-10-05T22:57:23.639Z,43.85
2022-10-05T22:59:51.465Z,43.85
2022-10-05T23:02:19.962Z,44.04
2022-10-05T23:04:47.893Z,43.41
2022-10-05T23:07:15.660Z,43.96
2022-10-05T23:09:43.546Z,43.75
2022-10-05T23:12:14.795Z,43.94
2022-10-05T23:14:42.694Z,43.82
2022-10-05T23:17:10.430Z,43.77
2022-10-05T23:19:38.449Z,43.80
2022-10-05T23:22:06.230Z,43.90
2022-10-05T23:24:34.879Z,43.84
2022-10-05T23:27:02.733Z,43.96
2022-10-05T23:29:30.689Z,44.03
2022-10-05T23:31:58.512Z,43.78
2022-10-05T23:34:27.373Z,44.13
2022-10-05T23:36:55.229Z,43.85
2022-10-05T23:39:22.954Z,44.18
2022-10-05T23:41:50.908Z,43.73
2022-10-05T23:44:18.844Z,44.02
2022-10-05T23:46:46.701Z,44.22
2022-10-05T23:49:15.343Z,44.15
2022-10-05T23:51:45.100Z,44.27
2022-10-05T23:54:12.949Z,44.11
2022-10-05T23:56:40.789Z,44.05
2022-10-05T23:59:08.524Z,43.99
